sensor_id;sensor_type;location;lat;lon;timestamp;P1;durP1;ratioP1;P2;durP2;ratioP2
54855;SDS011;40748;53.168;5.800;2022-12-18T00:01:40;0.40;;;0.40;;
54855;SDS011;40748;53.168;5.800;2022-12-18T00:04:16;0.40;;;0.40;;
54855;SDS011;40748;53.168;5.800;2022-12-18T00:06:40;0.40;;;0.40;;
54855;SDS011;40748;53.168;5.800;2022-12-18T00:09:10;0.40;;;0.40;;
54855;SDS011;40748;53.168;5.800;2022-12-18T00:11:40;0.70;;;0.70;;
54855;SDS011;40748;53.168;5.800;2022-12-18T00:14:12;0.70;;;0.70;;
54855;SDS011;40748;53.168;5.800;2022-12-18T00:16:43;0.70;;;0.70;;
54855;SDS011;40748;53.168;5.800;2022-12-18T00:19:12;0.70;;;0.70;;
54855;SDS011;40748;53.168;5.800;2022-12-18T00:21:41;0.90;;;0.60;;
54855;SDS011;40748;53.168;5.800;2022-12-18T00:24:11;0.90;;;0.60;;
54855;SDS011;40748;53.168;5.800;2022-12-18T00:26:40;0.90;;;0.60;;
54855;SDS011;40748;53.168;5.800;2022-12-18T00:29:13;0.90;;;0.60;;
54855;SDS011;40748;53.168;5.800;2022-12-18T00:31:41;3.60;;;1.80;;
54855;SDS011;40748;53.168;5.800;2022-12-18T00:34:11;3.60;;;1.80;;
54855;SDS011;40748;53.168;5.800;2022-12-18T00:36:40;3.60;;;1.80;;
54855;SDS011;40748;53.168;5.800;2022-12-18T00:39:10;3.60;;;1.80;;
54855;SDS011;40748;53.168;5.800;2022-12-18T00:41:40;0.30;;;0.10;;
54855;SDS011;40748;53.168;5.800;2022-12-18T00:44:12;0.30;;;0.10;;
54855;SDS011;40748;53.168;5.800;2022-12-18T00:49:10;0.30;;;0.10;;
54855;SDS011;40748;53.168;5.800;2022-12-18T00:51:40;1.80;;;0.30;;
54855;SDS011;40748;53.168;5.800;2022-12-18T00:54:10;1.80;;;0.30;;
54855;SDS011;40748;53.168;5.800;2022-12-18T00:56:40;1.80;;;0.30;;
54855;SDS011;40748;53.168;5.800;2022-12-18T00:59:10;1.80;;;0.30;;
54855;SDS011;40748;53.168;5.800;2022-12-18T01:01:40;3.00;;;1.30;;
54855;SDS011;40748;53.168;5.800;2022-12-18T01:04:10;3.00;;;1.30;;
54855;SDS011;40748;53.168;5.800;2022-12-18T01:06:40;3.00;;;1.30;;
54855;SDS011;40748;53.168;5.800;2022-12-18T01:09:10;3.00;;;1.30;;
54855;SDS011;40748;53.168;5.800;2022-12-18T01:14:10;0.20;;;0.10;;
54855;SDS011;40748;53.168;5.800;2022-12-18T01:16:41;0.20;;;0.10;;
54855;SDS011;40748;53.168;5.800;2022-12-18T01:19:10;0.20;;;0.10;;
54855;SDS011;40748;53.168;5.800;2022-12-18T01:24:11;0.90;;;0.40;;
54855;SDS011;40748;53.168;5.800;2022-12-18T01:26:40;0.90;;;0.40;;
54855;SDS011;40748;53.168;5.800;2022-12-18T01:29:10;0.90;;;0.40;;
54855;SDS011;40748;53.168;5.800;2022-12-18T01:31:40;1.40;;;0.60;;
54855;SDS011;40748;53.168;5.800;2022-12-18T01:34:10;1.40;;;0.60;;
54855;SDS011;40748;53.168;5.800;2022-12-18T01:36:40;1.40;;;0.60;;
54855;SDS011;40748;53.168;5.800;2022-12-18T01:39:12;1.40;;;0.60;;
54855;SDS011;40748;53.168;5.800;2022-12-18T01:41:40;0.50;;;0.40;;
54855;SDS011;40748;53.168;5.800;2022-12-18T01:46:40;0.50;;;0.40;;
54855;SDS011;40748;53.168;5.800;2022-12-18T01:49:10;0.50;;;0.40;;
54855;SDS011;40748;53.168;5.800;2022-12-18T01:51:40;0.20;;;0.10;;
54855;SDS011;40748;53.168;5.800;2022-12-18T01:54:10;0.20;;;0.10;;
54855;SDS011;40748;53.168;5.800;2022-12-18T01:56:40;0.20;;;0.10;;
54855;SDS011;40748;53.168;5.800;2022-12-18T01:59:11;1.40;;;0.60;;
54855;SDS011;40748;53.168;5.800;2022-12-18T02:01:40;1.40;;;0.60;;
54855;SDS011;40748;53.168;5.800;2022-12-18T02:04:21;1.40;;;0.60;;
54855;SDS011;40748;53.168;5.800;2022-12-18T02:06:41;1.40;;;0.60;;
54855;SDS011;40748;53.168;5.800;2022-12-18T02:09:13;0.10;;;0.00;;
54855;SDS011;40748;53.168;5.800;2022-12-18T02:11:45;0.10;;;0.00;;
54855;SDS011;40748;53.168;5.800;2022-12-18T02:14:17;0.10;;;0.00;;
54855;SDS011;40748;53.168;5.800;2022-12-18T02:16:46;0.10;;;0.00;;
54855;SDS011;40748;53.168;5.800;2022-12-18T02:19:19;0.30;;;0.20;;
54855;SDS011;40748;53.168;5.800;2022-12-18T02:21:46;0.30;;;0.20;;
54855;SDS011;40748;53.168;5.800;2022-12-18T02:24:18;0.30;;;0.20;;
54855;SDS011;40748;53.168;5.800;2022-12-18T02:26:43;0.30;;;0.20;;
54855;SDS011;40748;53.168;5.800;2022-12-18T02:29:13;1.40;;;0.50;;
54855;SDS011;40748;53.168;5.800;2022-12-18T02:31:45;1.40;;;0.50;;
54855;SDS011;40748;53.168;5.800;2022-12-18T02:34:11;1.40;;;0.50;;
54855;SDS011;40748;53.168;5.800;2022-12-18T02:36:42;1.40;;;0.50;;
54855;SDS011;40748;53.168;5.800;2022-12-18T02:39:12;0.30;;;0.10;;
54855;SDS011;40748;53.168;5.800;2022-12-18T02:41:40;0.30;;;0.10;;
54855;SDS011;40748;53.168;5.800;2022-12-18T02:44:12;0.30;;;0.10;;
54855;SDS011;40748;53.168;5.800;2022-12-18T02:46:42;0.30;;;0.10;;
54855;SDS011;40748;53.168;5.800;2022-12-18T02:49:21;0.10;;;0.00;;
54855;SDS011;40748;53.168;5.800;2022-12-18T02:51:49;0.10;;;0.00;;
54855;SDS011;40748;53.168;5.800;2022-12-18T02:54:16;0.10;;;0.00;;
54855;SDS011;40748;53.168;5.800;2022-12-18T02:56:46;0.10;;;0.00;;
54855;SDS011;40748;53.168;5.800;2022-12-18T02:59:13;0.10;;;0.00;;
54855;SDS011;40748;53.168;5.800;2022-12-18T03:01:50;0.10;;;0.00;;
54855;SDS011;40748;53.168;5.800;2022-12-18T03:04:14;0.10;;;0.00;;
54855;SDS011;40748;53.168;5.800;2022-12-18T03:06:43;0.10;;;0.00;;
54855;SDS011;40748;53.168;5.800;2022-12-18T03:09:13;0.80;;;0.50;;
54855;SDS011;40748;53.168;5.800;2022-12-18T03:11:45;0.80;;;0.50;;
54855;SDS011;40748;53.168;5.800;2022-12-18T03:14:12;0.80;;;0.50;;
54855;SDS011;40748;53.168;5.800;2022-12-18T03:16:41;0.80;;;0.50;;
54855;SDS011;40748;53.168;5.800;2022-12-18T03:19:14;0.50;;;0.40;;
54855;SDS011;40748;53.168;5.800;2022-12-18T03:21:43;0.50;;;0.40;;
54855;SDS011;40748;53.168;5.800;2022-12-18T03:24:11;0.50;;;0.40;;
54855;SDS011;40748;53.168;5.800;2022-12-18T03:26:47;0.50;;;0.40;;
54855;SDS011;40748;53.168;5.800;2022-12-18T03:29:16;0.40;;;0.30;;
54855;SDS011;40748;53.168;5.800;2022-12-18T03:31:45;0.40;;;0.30;;
54855;SDS011;40748;53.168;5.800;2022-12-18T03:34:14;0.40;;;0.30;;
54855;SDS011;40748;53.168;5.800;2022-12-18T03:36:40;0.40;;;0.30;;
54855;SDS011;40748;53.168;5.800;2022-12-18T03:39:10;1.70;;;1.50;;
54855;SDS011;40748;53.168;5.800;2022-12-18T03:41:43;1.70;;;1.50;;
54855;SDS011;40748;53.168;5.800;2022-12-18T03:44:13;1.70;;;1.50;;
54855;SDS011;40748;53.168;5.800;2022-12-18T03:46:48;1.70;;;1.50;;
54855;SDS011;40748;53.168;5.800;2022-12-18T03:49:13;0.10;;;0.00;;
54855;SDS011;40748;53.168;5.800;2022-12-18T03:51:48;0.10;;;0.00;;
54855;SDS011;40748;53.168;5.800;2022-12-18T03:54:11;0.10;;;0.00;;
54855;SDS011;40748;53.168;5.800;2022-12-18T03:56:45;0.10;;;0.00;;
54855;SDS011;40748;53.168;5.800;2022-12-18T03:59:12;0.20;;;0.00;;
54855;SDS011;40748;53.168;5.800;2022-12-18T04:04:12;0.20;;;0.00;;
54855;SDS011;40748;53.168;5.800;2022-12-18T04:06:41;0.20;;;0.00;;
54855;SDS011;40748;53.168;5.800;2022-12-18T04:09:10;0.30;;;0.20;;
54855;SDS011;40748;53.168;5.800;2022-12-18T04:14:11;0.30;;;0.20;;
54855;SDS011;40748;53.168;5.800;2022-12-18T04:21:40;2.30;;;0.80;;
54855;SDS011;40748;53.168;5.800;2022-12-18T04:24:10;2.30;;;0.80;;
54855;SDS011;40748;53.168;5.800;2022-12-18T04:29:10;0.30;;;0.20;;
54855;SDS011;40748;53.168;5.800;2022-12-18T04:31:40;0.30;;;0.20;;
54855;SDS011;40748;53.168;5.800;2022-12-18T04:34:10;0.30;;;0.20;;
54855;SDS011;40748;53.168;5.800;2022-12-18T04:36:40;0.30;;;0.20;;
54855;SDS011;40748;53.168;5.800;2022-12-18T04:41:40;0.70;;;0.50;;
54855;SDS011;40748;53.168;5.800;2022-12-18T04:44:10;0.70;;;0.50;;
54855;SDS011;40748;53.168;5.800;2022-12-18T04:46:40;0.70;;;0.50;;
54855;SDS011;40748;53.168;5.800;2022-12-18T04:49:10;0.60;;;0.20;;
54855;SDS011;40748;53.168;5.800;2022-12-18T04:51:40;0.60;;;0.20;;
54855;SDS011;40748;53.168;5.800;2022-12-18T04:56:41;0.60;;;0.20;;
54855;SDS011;40748;53.168;5.800;2022-12-18T04:59:10;0.10;;;0.00;;
54855;SDS011;40748;53.168;5.800;2022-12-18T05:01:40;0.10;;;0.00;;
54855;SDS011;40748;53.168;5.800;2022-12-18T05:04:10;0.10;;;0.00;;
54855;SDS011;40748;53.168;5.800;2022-12-18T05:06:40;0.10;;;0.00;;
54855;SDS011;40748;53.168;5.800;2022-12-18T05:09:10;2.30;;;1.00;;
54855;SDS011;40748;53.168;5.800;2022-12-18T05:11:40;2.30;;;1.00;;
54855;SDS011;40748;53.168;5.800;2022-12-18T05:16:40;2.30;;;1.00;;
54855;SDS011;40748;53.168;5.800;2022-12-18T05:19:10;1.20;;;0.60;;
54855;SDS011;40748;53.168;5.800;2022-12-18T05:21:40;1.20;;;0.60;;
54855;SDS011;40748;53.168;5.800;2022-12-18T05:24:10;1.20;;;0.60;;
54855;SDS011;40748;53.168;5.800;2022-12-18T05:26:40;1.20;;;0.60;;
54855;SDS011;40748;53.168;5.800;2022-12-18T05:29:10;0.40;;;0.20;;
54855;SDS011;40748;53.168;5.800;2022-12-18T05:31:40;0.40;;;0.20;;
54855;SDS011;40748;53.168;5.800;2022-12-18T05:34:10;0.40;;;0.20;;
54855;SDS011;40748;53.168;5.800;2022-12-18T05:36:40;0.40;;;0.20;;
54855;SDS011;40748;53.168;5.800;2022-12-18T05:39:10;0.10;;;0.00;;
54855;SDS011;40748;53.168;5.800;2022-12-18T05:41:40;0.10;;;0.00;;
54855;SDS011;40748;53.168;5.800;2022-12-18T05:44:10;0.10;;;0.00;;
54855;SDS011;40748;53.168;5.800;2022-12-18T05:46:40;0.10;;;0.00;;
54855;SDS011;40748;53.168;5.800;2022-12-18T05:49:10;0.80;;;0.60;;
54855;SDS011;40748;53.168;5.800;2022-12-18T05:51:40;0.80;;;0.60;;
54855;SDS011;40748;53.168;5.800;2022-12-18T05:54:10;0.80;;;0.60;;
54855;SDS011;40748;53.168;5.800;2022-12-18T05:56:40;0.80;;;0.60;;
54855;SDS011;40748;53.168;5.800;2022-12-18T05:59:10;0.40;;;0.20;;
54855;SDS011;40748;53.168;5.800;2022-12-18T06:01:40;0.40;;;0.20;;
54855;SDS011;40748;53.168;5.800;2022-12-18T06:09:10;0.30;;;0.20;;
54855;SDS011;40748;53.168;5.800;2022-12-18T06:11:40;0.30;;;0.20;;
54855;SDS011;40748;53.168;5.800;2022-12-18T06:14:10;0.30;;;0.20;;
54855;SDS011;40748;53.168;5.800;2022-12-18T06:16:40;0.30;;;0.20;;
54855;SDS011;40748;53.168;5.800;2022-12-18T06:19:14;0.30;;;0.20;;
54855;SDS011;40748;53.168;5.800;2022-12-18T06:21:40;0.30;;;0.20;;
54855;SDS011;40748;53.168;5.800;2022-12-18T06:24:10;0.30;;;0.20;;
54855;SDS011;40748;53.168;5.800;2022-12-18T06:26:40;0.30;;;0.20;;
54855;SDS011;40748;53.168;5.800;2022-12-18T06:29:10;0.20;;;0.00;;
54855;SDS011;40748;53.168;5.800;2022-12-18T06:31:40;0.20;;;0.00;;
54855;SDS011;40748;53.168;5.800;2022-12-18T06:34:10;0.20;;;0.00;;
54855;SDS011;40748;53.168;5.800;2022-12-18T06:36:40;0.20;;;0.00;;
54855;SDS011;40748;53.168;5.800;2022-12-18T06:39:10;0.20;;;0.00;;
54855;SDS011;40748;53.168;5.800;2022-12-18T06:41:40;0.20;;;0.00;;
54855;SDS011;40748;53.168;5.800;2022-12-18T06:44:10;0.20;;;0.00;;
54855;SDS011;40748;53.168;5.800;2022-12-18T06:46:40;0.20;;;0.00;;
54855;SDS011;40748;53.168;5.800;2022-12-18T06:49:10;1.20;;;0.80;;
54855;SDS011;40748;53.168;5.800;2022-12-18T06:51:40;1.20;;;0.80;;
54855;SDS011;40748;53.168;5.800;2022-12-18T06:54:10;1.20;;;0.80;;
54855;SDS011;40748;53.168;5.800;2022-12-18T06:56:40;1.20;;;0.80;;
54855;SDS011;40748;53.168;5.800;2022-12-18T06:59:10;0.10;;;0.00;;
54855;SDS011;40748;53.168;5.800;2022-12-18T07:01:40;0.10;;;0.00;;
54855;SDS011;40748;53.168;5.800;2022-12-18T07:04:10;0.10;;;0.00;;
54855;SDS011;40748;53.168;5.800;2022-12-18T07:06:40;0.10;;;0.00;;
54855;SDS011;40748;53.168;5.800;2022-12-18T07:09:10;0.10;;;0.00;;
54855;SDS011;40748;53.168;5.800;2022-12-18T07:11:40;0.10;;;0.00;;
54855;SDS011;40748;53.168;5.800;2022-12-18T07:14:10;0.10;;;0.00;;
54855;SDS011;40748;53.168;5.800;2022-12-18T07:16:40;0.10;;;0.00;;
54855;SDS011;40748;53.168;5.800;2022-12-18T07:19:10;0.10;;;0.00;;
54855;SDS011;40748;53.168;5.800;2022-12-18T07:24:10;0.10;;;0.00;;
54855;SDS011;40748;53.168;5.800;2022-12-18T07:26:40;0.10;;;0.00;;
54855;SDS011;40748;53.168;5.800;2022-12-18T07:29:10;0.30;;;0.10;;
54855;SDS011;40748;53.168;5.800;2022-12-18T07:34:10;0.30;;;0.10;;
54855;SDS011;40748;53.168;5.800;2022-12-18T07:36:40;0.30;;;0.10;;
54855;SDS011;40748;53.168;5.800;2022-12-18T07:39:11;0.30;;;0.20;;
54855;SDS011;40748;53.168;5.800;2022-12-18T07:49:11;0.10;;;0.00;;
54855;SDS011;40748;53.168;5.800;2022-12-18T07:54:10;0.10;;;0.00;;
54855;SDS011;40748;53.168;5.800;2022-12-18T07:56:40;0.10;;;0.00;;
54855;SDS011;40748;53.168;5.800;2022-12-18T07:59:10;0.20;;;0.00;;
54855;SDS011;40748;53.168;5.800;2022-12-18T08:01:40;0.20;;;0.00;;
54855;SDS011;40748;53.168;5.800;2022-12-18T08:04:10;0.20;;;0.00;;
54855;SDS011;40748;53.168;5.800;2022-12-18T08:06:40;0.20;;;0.00;;
54855;SDS011;40748;53.168;5.800;2022-12-18T08:09:10;1.70;;;1.10;;
54855;SDS011;40748;53.168;5.800;2022-12-18T08:11:40;1.70;;;1.10;;
54855;SDS011;40748;53.168;5.800;2022-12-18T08:14:10;1.70;;;1.10;;
54855;SDS011;40748;53.168;5.800;2022-12-18T08:19:10;0.20;;;0.10;;
54855;SDS011;40748;53.168;5.800;2022-12-18T08:21:40;0.20;;;0.10;;
54855;SDS011;40748;53.168;5.800;2022-12-18T08:24:10;0.20;;;0.10;;
54855;SDS011;40748;53.168;5.800;2022-12-18T08:26:40;0.20;;;0.10;;
54855;SDS011;40748;53.168;5.800;2022-12-18T08:29:10;0.10;;;0.00;;
54855;SDS011;40748;53.168;5.800;2022-12-18T08:31:40;0.10;;;0.00;;
54855;SDS011;40748;53.168;5.800;2022-12-18T08:34:10;0.10;;;0.00;;
54855;SDS011;40748;53.168;5.800;2022-12-18T08:36:40;0.10;;;0.00;;
54855;SDS011;40748;53.168;5.800;2022-12-18T08:39:10;1.00;;;0.40;;
54855;SDS011;40748;53.168;5.800;2022-12-18T08:41:40;1.00;;;0.40;;
54855;SDS011;40748;53.168;5.800;2022-12-18T08:44:10;1.00;;;0.40;;
54855;SDS011;40748;53.168;5.800;2022-12-18T08:46:42;1.00;;;0.40;;
54855;SDS011;40748;53.168;5.800;2022-12-18T08:49:11;0.10;;;0.00;;
54855;SDS011;40748;53.168;5.800;2022-12-18T08:51:40;0.10;;;0.00;;
54855;SDS011;40748;53.168;5.800;2022-12-18T08:54:11;0.10;;;0.00;;
54855;SDS011;40748;53.168;5.800;2022-12-18T08:56:40;0.10;;;0.00;;
54855;SDS011;40748;53.168;5.800;2022-12-18T08:59:10;0.10;;;0.00;;
54855;SDS011;40748;53.168;5.800;2022-12-18T09:01:40;0.10;;;0.00;;
54855;SDS011;40748;53.168;5.800;2022-12-18T09:04:10;0.10;;;0.00;;
54855;SDS011;40748;53.168;5.800;2022-12-18T09:06:40;0.10;;;0.00;;
54855;SDS011;40748;53.168;5.800;2022-12-18T09:09:10;0.10;;;0.00;;
54855;SDS011;40748;53.168;5.800;2022-12-18T09:11:40;0.10;;;0.00;;
54855;SDS011;40748;53.168;5.800;2022-12-18T09:14:10;0.10;;;0.00;;
54855;SDS011;40748;53.168;5.800;2022-12-18T09:16:40;0.10;;;0.00;;
54855;SDS011;40748;53.168;5.800;2022-12-18T09:19:10;2.10;;;1.20;;
54855;SDS011;40748;53.168;5.800;2022-12-18T09:21:40;2.10;;;1.20;;
54855;SDS011;40748;53.168;5.800;2022-12-18T09:24:12;2.10;;;1.20;;
54855;SDS011;40748;53.168;5.800;2022-12-18T09:26:40;2.10;;;1.20;;
54855;SDS011;40748;53.168;5.800;2022-12-18T09:29:10;0.10;;;0.00;;
54855;SDS011;40748;53.168;5.800;2022-12-18T09:31:40;0.10;;;0.00;;
54855;SDS011;40748;53.168;5.800;2022-12-18T09:34:10;0.10;;;0.00;;
54855;SDS011;40748;53.168;5.800;2022-12-18T09:36:40;0.10;;;0.00;;
54855;SDS011;40748;53.168;5.800;2022-12-18T09:39:10;0.10;;;0.00;;
54855;SDS011;40748;53.168;5.800;2022-12-18T09:41:43;0.10;;;0.00;;
54855;SDS011;40748;53.168;5.800;2022-12-18T09:44:17;0.10;;;0.00;;
54855;SDS011;40748;53.168;5.800;2022-12-18T09:46:44;0.10;;;0.00;;
54855;SDS011;40748;53.168;5.800;2022-12-18T09:49:13;0.10;;;0.00;;
54855;SDS011;40748;53.168;5.800;2022-12-18T09:54:14;0.10;;;0.00;;
54855;SDS011;40748;53.168;5.800;2022-12-18T09:56:42;0.10;;;0.00;;
54855;SDS011;40748;53.168;5.800;2022-12-18T09:59:20;0.40;;;0.20;;
54855;SDS011;40748;53.168;5.800;2022-12-18T10:01:40;0.40;;;0.20;;
54855;SDS011;40748;53.168;5.800;2022-12-18T10:04:10;0.40;;;0.20;;
54855;SDS011;40748;53.168;5.800;2022-12-18T10:06:46;0.40;;;0.20;;
54855;SDS011;40748;53.168;5.800;2022-12-18T10:09:21;0.20;;;0.00;;
54855;SDS011;40748;53.168;5.800;2022-12-18T10:11:47;0.20;;;0.00;;
54855;SDS011;40748;53.168;5.800;2022-12-18T10:14:15;0.20;;;0.00;;
54855;SDS011;40748;53.168;5.800;2022-12-18T10:16:47;0.20;;;0.00;;
54855;SDS011;40748;53.168;5.800;2022-12-18T10:19:20;0.50;;;0.30;;
54855;SDS011;40748;53.168;5.800;2022-12-18T10:21:45;0.50;;;0.30;;
54855;SDS011;40748;53.168;5.800;2022-12-18T10:24:16;0.50;;;0.30;;
54855;SDS011;40748;53.168;5.800;2022-12-18T10:26:41;0.50;;;0.30;;
54855;SDS011;40748;53.168;5.800;2022-12-18T10:29:12;0.10;;;0.00;;
54855;SDS011;40748;53.168;5.800;2022-12-18T10:31:40;0.10;;;0.00;;
54855;SDS011;40748;53.168;5.800;2022-12-18T10:34:10;0.10;;;0.00;;
54855;SDS011;40748;53.168;5.800;2022-12-18T10:36:40;0.10;;;0.00;;
54855;SDS011;40748;53.168;5.800;2022-12-18T10:39:20;0.20;;;0.00;;
54855;SDS011;40748;53.168;5.800;2022-12-18T10:41:40;0.20;;;0.00;;
54855;SDS011;40748;53.168;5.800;2022-12-18T10:44:16;0.20;;;0.00;;
54855;SDS011;40748;53.168;5.800;2022-12-18T10:46:40;0.20;;;0.00;;
54855;SDS011;40748;53.168;5.800;2022-12-18T10:49:19;0.60;;;0.60;;
54855;SDS011;40748;53.168;5.800;2022-12-18T10:51:40;0.60;;;0.60;;
54855;SDS011;40748;53.168;5.800;2022-12-18T10:54:15;0.60;;;0.60;;
54855;SDS011;40748;53.168;5.800;2022-12-18T10:56:41;0.60;;;0.60;;
54855;SDS011;40748;53.168;5.800;2022-12-18T10:59:13;0.60;;;0.30;;
54855;SDS011;40748;53.168;5.800;2022-12-18T11:01:50;0.60;;;0.30;;
54855;SDS011;40748;53.168;5.800;2022-12-18T11:04:17;0.60;;;0.30;;
54855;SDS011;40748;53.168;5.800;2022-12-18T11:06:52;0.60;;;0.30;;
54855;SDS011;40748;53.168;5.800;2022-12-18T11:09:20;0.20;;;0.00;;
54855;SDS011;40748;53.168;5.800;2022-12-18T11:11:40;0.20;;;0.00;;
54855;SDS011;40748;53.168;5.800;2022-12-18T11:14:16;0.20;;;0.00;;
54855;SDS011;40748;53.168;5.800;2022-12-18T11:16:44;0.20;;;0.00;;
54855;SDS011;40748;53.168;5.800;2022-12-18T11:19:21;0.10;;;0.00;;
54855;SDS011;40748;53.168;5.800;2022-12-18T11:21:41;0.10;;;0.00;;
54855;SDS011;40748;53.168;5.800;2022-12-18T11:24:19;0.10;;;0.00;;
54855;SDS011;40748;53.168;5.800;2022-12-18T11:26:40;0.10;;;0.00;;
54855;SDS011;40748;53.168;5.800;2022-12-18T11:29:16;0.30;;;0.20;;
54855;SDS011;40748;53.168;5.800;2022-12-18T11:34:14;0.30;;;0.20;;
54855;SDS011;40748;53.168;5.800;2022-12-18T11:36:43;0.30;;;0.20;;
54855;SDS011;40748;53.168;5.800;2022-12-18T11:39:15;0.10;;;0.00;;
54855;SDS011;40748;53.168;5.800;2022-12-18T11:41:47;0.10;;;0.00;;
54855;SDS011;40748;53.168;5.800;2022-12-18T11:44:13;0.10;;;0.00;;
54855;SDS011;40748;53.168;5.800;2022-12-18T11:46:47;0.10;;;0.00;;
54855;SDS011;40748;53.168;5.800;2022-12-18T11:49:15;0.40;;;0.20;;
54855;SDS011;40748;53.168;5.800;2022-12-18T11:51:45;0.40;;;0.20;;
54855;SDS011;40748;53.168;5.800;2022-12-18T11:56:45;0.40;;;0.20;;
54855;SDS011;40748;53.168;5.800;2022-12-18T11:59:22;0.10;;;0.00;;
54855;SDS011;40748;53.168;5.800;2022-12-18T12:01:48;0.10;;;0.00;;
54855;SDS011;40748;53.168;5.800;2022-12-18T12:06:46;0.10;;;0.00;;
54855;SDS011;40748;53.168;5.800;2022-12-18T12:09:17;0.10;;;0.00;;
54855;SDS011;40748;53.168;5.800;2022-12-18T12:11:50;0.10;;;0.00;;
54855;SDS011;40748;53.168;5.800;2022-12-18T12:14:23;0.10;;;0.00;;
54855;SDS011;40748;53.168;5.800;2022-12-18T12:16:48;0.10;;;0.00;;
54855;SDS011;40748;53.168;5.800;2022-12-18T12:19:20;0.20;;;0.00;;
54855;SDS011;40748;53.168;5.800;2022-12-18T12:21:42;0.20;;;0.00;;
54855;SDS011;40748;53.168;5.800;2022-12-18T12:24:22;0.20;;;0.00;;
54855;SDS011;40748;53.168;5.800;2022-12-18T12:26:46;0.20;;;0.00;;
54855;SDS011;40748;53.168;5.800;2022-12-18T12:31:54;0.50;;;0.30;;
54855;SDS011;40748;53.168;5.800;2022-12-18T12:34:16;0.50;;;0.30;;
54855;SDS011;40748;53.168;5.800;2022-12-18T12:36:50;0.50;;;0.30;;
54855;SDS011;40748;53.168;5.800;2022-12-18T12:39:13;0.20;;;0.10;;
54855;SDS011;40748;53.168;5.800;2022-12-18T12:41:41;0.20;;;0.10;;
54855;SDS011;40748;53.168;5.800;2022-12-18T12:44:16;0.20;;;0.10;;
54855;SDS011;40748;53.168;5.800;2022-12-18T12:46:41;0.20;;;0.10;;
54855;SDS011;40748;53.168;5.800;2022-12-18T12:49:15;0.60;;;0.30;;
54855;SDS011;40748;53.168;5.800;2022-12-18T12:51:43;0.60;;;0.30;;
54855;SDS011;40748;53.168;5.800;2022-12-18T12:54:15;0.60;;;0.30;;
54855;SDS011;40748;53.168;5.800;2022-12-18T12:56:47;0.60;;;0.30;;
54855;SDS011;40748;53.168;5.800;2022-12-18T12:59:13;0.10;;;0.00;;
54855;SDS011;40748;53.168;5.800;2022-12-18T13:01:48;0.10;;;0.00;;
54855;SDS011;40748;53.168;5.800;2022-12-18T13:04:20;0.10;;;0.00;;
54855;SDS011;40748;53.168;5.800;2022-12-18T13:06:45;0.10;;;0.00;;
54855;SDS011;40748;53.168;5.800;2022-12-18T13:09:10;0.10;;;0.00;;
54855;SDS011;40748;53.168;5.800;2022-12-18T13:11:42;0.10;;;0.00;;
54855;SDS011;40748;53.168;5.800;2022-12-18T13:16:40;0.10;;;0.00;;
54855;SDS011;40748;53.168;5.800;2022-12-18T13:19:21;0.10;;;0.00;;
54855;SDS011;40748;53.168;5.800;2022-12-18T13:21:40;0.10;;;0.00;;
54855;SDS011;40748;53.168;5.800;2022-12-18T13:24:15;0.10;;;0.00;;
54855;SDS011;40748;53.168;5.800;2022-12-18T13:26:40;0.10;;;0.00;;
54855;SDS011;40748;53.168;5.800;2022-12-18T13:29:10;4.80;;;0.80;;
54855;SDS011;40748;53.168;5.800;2022-12-18T13:31:59;4.80;;;0.80;;
54855;SDS011;40748;53.168;5.800;2022-12-18T13:34:16;4.80;;;0.80;;
54855;SDS011;40748;53.168;5.800;2022-12-18T13:36:40;4.80;;;0.80;;
54855;SDS011;40748;53.168;5.800;2022-12-18T13:39:21;0.30;;;0.10;;
54855;SDS011;40748;53.168;5.800;2022-12-18T13:41:40;0.30;;;0.10;;
54855;SDS011;40748;53.168;5.800;2022-12-18T13:44:13;0.30;;;0.10;;
54855;SDS011;40748;53.168;5.800;2022-12-18T13:46:43;0.30;;;0.10;;
54855;SDS011;40748;53.168;5.800;2022-12-18T13:49:21;0.10;;;0.00;;
54855;SDS011;40748;53.168;5.800;2022-12-18T13:51:42;0.10;;;0.00;;
54855;SDS011;40748;53.168;5.800;2022-12-18T13:54:18;0.10;;;0.00;;
54855;SDS011;40748;53.168;5.800;2022-12-18T13:56:43;0.10;;;0.00;;
54855;SDS011;40748;53.168;5.800;2022-12-18T13:59:16;0.10;;;0.00;;
54855;SDS011;40748;53.168;5.800;2022-12-18T14:01:43;0.10;;;0.00;;
54855;SDS011;40748;53.168;5.800;2022-12-18T14:04:12;0.10;;;0.00;;
54855;SDS011;40748;53.168;5.800;2022-12-18T14:06:41;0.10;;;0.00;;
54855;SDS011;40748;53.168;5.800;2022-12-18T14:09:13;0.30;;;0.10;;
54855;SDS011;40748;53.168;5.800;2022-12-18T14:11:40;0.30;;;0.10;;
54855;SDS011;40748;53.168;5.800;2022-12-18T14:14:13;0.30;;;0.10;;
54855;SDS011;40748;53.168;5.800;2022-12-18T14:16:41;0.30;;;0.10;;
54855;SDS011;40748;53.168;5.800;2022-12-18T14:19:14;0.10;;;0.00;;
54855;SDS011;40748;53.168;5.800;2022-12-18T14:21:45;0.10;;;0.00;;
54855;SDS011;40748;53.168;5.800;2022-12-18T14:26:41;0.10;;;0.00;;
54855;SDS011;40748;53.168;5.800;2022-12-18T14:29:21;0.10;;;0.00;;
54855;SDS011;40748;53.168;5.800;2022-12-18T14:31:40;0.10;;;0.00;;
54855;SDS011;40748;53.168;5.800;2022-12-18T14:36:40;0.10;;;0.00;;
54855;SDS011;40748;53.168;5.800;2022-12-18T14:39:17;0.10;;;0.00;;
54855;SDS011;40748;53.168;5.800;2022-12-18T14:41:40;0.10;;;0.00;;
54855;SDS011;40748;53.168;5.800;2022-12-18T14:44:12;0.10;;;0.00;;
54855;SDS011;40748;53.168;5.800;2022-12-18T14:46:44;0.10;;;0.00;;
54855;SDS011;40748;53.168;5.800;2022-12-18T14:49:19;0.10;;;0.00;;
54855;SDS011;40748;53.168;5.800;2022-12-18T14:51:47;0.10;;;0.00;;
54855;SDS011;40748;53.168;5.800;2022-12-18T14:54:15;0.10;;;0.00;;
54855;SDS011;40748;53.168;5.800;2022-12-18T15:01:46;0.20;;;0.00;;
54855;SDS011;40748;53.168;5.800;2022-12-18T15:04:23;0.20;;;0.00;;
54855;SDS011;40748;53.168;5.800;2022-12-18T15:06:40;0.20;;;0.00;;
54855;SDS011;40748;53.168;5.800;2022-12-18T15:09:21;0.10;;;0.00;;
54855;SDS011;40748;53.168;5.800;2022-12-18T15:11:46;0.10;;;0.00;;
54855;SDS011;40748;53.168;5.800;2022-12-18T15:14:22;0.10;;;0.00;;
54855;SDS011;40748;53.168;5.800;2022-12-18T15:16:40;0.70;;;0.40;;
54855;SDS011;40748;53.168;5.800;2022-12-18T15:19:10;0.70;;;0.40;;
54855;SDS011;40748;53.168;5.800;2022-12-18T15:24:18;0.70;;;0.40;;
54855;SDS011;40748;53.168;5.800;2022-12-18T15:26:40;0.10;;;0.00;;
54855;SDS011;40748;53.168;5.800;2022-12-18T15:29:19;0.10;;;0.00;;
54855;SDS011;40748;53.168;5.800;2022-12-18T15:31:40;0.10;;;0.00;;
54855;SDS011;40748;53.168;5.800;2022-12-18T15:34:13;0.10;;;0.00;;
54855;SDS011;40748;53.168;5.800;2022-12-18T15:36:40;0.10;;;0.00;;
54855;SDS011;40748;53.168;5.800;2022-12-18T15:39:11;0.10;;;0.00;;
54855;SDS011;40748;53.168;5.800;2022-12-18T15:41:40;0.10;;;0.00;;
54855;SDS011;40748;53.168;5.800;2022-12-18T15:44:21;0.10;;;0.00;;
54855;SDS011;40748;53.168;5.800;2022-12-18T15:46:40;0.10;;;0.00;;
54855;SDS011;40748;53.168;5.800;2022-12-18T15:49:10;0.10;;;0.00;;
54855;SDS011;40748;53.168;5.800;2022-12-18T15:51:40;0.10;;;0.00;;
54855;SDS011;40748;53.168;5.800;2022-12-18T15:54:13;0.10;;;0.00;;
54855;SDS011;40748;53.168;5.800;2022-12-18T15:56:40;0.10;;;0.00;;
54855;SDS011;40748;53.168;5.800;2022-12-18T15:59:12;0.10;;;0.00;;
54855;SDS011;40748;53.168;5.800;2022-12-18T16:01:41;0.10;;;0.00;;
54855;SDS011;40748;53.168;5.800;2022-12-18T16:04:11;0.10;;;0.00;;
54855;SDS011;40748;53.168;5.800;2022-12-18T16:06:40;0.30;;;0.20;;
54855;SDS011;40748;53.168;5.800;2022-12-18T16:09:10;0.30;;;0.20;;
54855;SDS011;40748;53.168;5.800;2022-12-18T16:11:42;0.30;;;0.20;;
54855;SDS011;40748;53.168;5.800;2022-12-18T16:14:17;0.30;;;0.20;;
54855;SDS011;40748;53.168;5.800;2022-12-18T16:16:40;0.10;;;0.00;;
54855;SDS011;40748;53.168;5.800;2022-12-18T16:19:10;0.10;;;0.00;;
54855;SDS011;40748;53.168;5.800;2022-12-18T16:21:40;0.10;;;0.00;;
54855;SDS011;40748;53.168;5.800;2022-12-18T16:24:14;0.10;;;0.00;;